sensor_id;sensor_type;location;lat;lon;timestamp;P1;durP1;ratioP1;P2;durP2;ratioP2
37595;SDS011;23442;48.182;11.552;2022-09-01T00:01:13;35.30;;;18.13;;
37595;SDS011;23442;48.182;11.552;2022-09-01T00:03:48;49.25;;;19.60;;
37595;SDS011;23442;48.182;11.552;2022-09-01T00:06:17;40.28;;;17.65;;
37595;SDS011;23442;48.182;11.552;2022-09-01T00:08:52;30.15;;;16.40;;
37595;SDS011;23442;48.182;11.552;2022-09-01T00:11:19;43.05;;;17.67;;
37595;SDS011;23442;48.182;11.552;2022-09-01T00:13:47;42.30;;;18.35;;
37595;SDS011;23442;48.182;11.552;2022-09-01T00:16:14;37.55;;;18.17;;
37595;SDS011;23442;48.182;11.552;2022-09-01T00:18:43;33.35;;;16.98;;
37595;SDS011;23442;48.182;11.552;2022-09-01T00:21:10;33.60;;;17.40;;
37595;SDS011;23442;48.182;11.552;2022-09-01T00:23:37;31.02;;;16.45;;
37595;SDS011;23442;48.182;11.552;2022-09-01T00:26:04;49.28;;;20.25;;
37595;SDS011;23442;48.182;11.552;2022-09-01T00:28:34;35.30;;;17.95;;
37595;SDS011;23442;48.182;11.552;2022-09-01T00:31:02;40.55;;;18.63;;
37595;SDS011;23442;48.182;11.552;2022-09-01T00:33:31;31.08;;;16.00;;
37595;SDS011;23442;48.182;11.552;2022-09-01T00:35:58;51.60;;;20.08;;
37595;SDS011;23442;48.182;11.552;2022-09-01T00:38:24;36.80;;;18.20;;
37595;SDS011;23442;48.182;11.552;2022-09-01T00:40:51;37.33;;;18.55;;
37595;SDS011;23442;48.182;11.552;2022-09-01T00:43:21;28.17;;;17.00;;
37595;SDS011;23442;48.182;11.552;2022-09-01T00:45:53;57.88;;;21.60;;
37595;SDS011;23442;48.182;11.552;2022-09-01T00:48:21;42.13;;;19.08;;
37595;SDS011;23442;48.182;11.552;2022-09-01T00:50:49;37.25;;;17.95;;
37595;SDS011;23442;48.182;11.552;2022-09-01T00:53:15;39.60;;;18.20;;
37595;SDS011;23442;48.182;11.552;2022-09-01T00:55:41;37.05;;;17.90;;
37595;SDS011;23442;48.182;11.552;2022-09-01T00:58:07;40.83;;;18.88;;
37595;SDS011;23442;48.182;11.552;2022-09-01T01:00:35;45.70;;;19.63;;
37595;SDS011;23442;48.182;11.552;2022-09-01T01:03:05;37.45;;;18.48;;
37595;SDS011;23442;48.182;11.552;2022-09-01T01:05:35;49.42;;;19.95;;
37595;SDS011;23442;48.182;11.552;2022-09-01T01:08:04;31.65;;;18.05;;
37595;SDS011;23442;48.182;11.552;2022-09-01T01:10:35;30.40;;;17.95;;
37595;SDS011;23442;48.182;11.552;2022-09-01T01:13:13;38.05;;;19.55;;
37595;SDS011;23442;48.182;11.552;2022-09-01T01:15:41;42.38;;;19.08;;
37595;SDS011;23442;48.182;11.552;2022-09-01T01:18:14;39.45;;;20.15;;
37595;SDS011;23442;48.182;11.552;2022-09-01T01:20:41;39.70;;;19.08;;
37595;SDS011;23442;48.182;11.552;2022-09-01T01:23:39;28.98;;;17.75;;
37595;SDS011;23442;48.182;11.552;2022-09-01T01:26:32;33.75;;;18.30;;
37595;SDS011;23442;48.182;11.552;2022-09-01T01:28:58;42.55;;;19.60;;
37595;SDS011;23442;48.182;11.552;2022-09-01T01:31:26;30.42;;;17.35;;
37595;SDS011;23442;48.182;11.552;2022-09-01T01:33:52;41.47;;;18.42;;
37595;SDS011;23442;48.182;11.552;2022-09-01T01:38:56;43.35;;;19.50;;
37595;SDS011;23442;48.182;11.552;2022-09-01T01:41:28;29.02;;;17.65;;
37595;SDS011;23442;48.182;11.552;2022-09-01T01:43:56;49.10;;;20.20;;
37595;SDS011;23442;48.182;11.552;2022-09-01T01:46:24;36.47;;;17.92;;
37595;SDS011;23442;48.182;11.552;2022-09-01T01:48:51;37.72;;;18.92;;
37595;SDS011;23442;48.182;11.552;2022-09-01T01:51:18;36.63;;;18.58;;
37595;SDS011;23442;48.182;11.552;2022-09-01T01:53:49;43.45;;;19.02;;
37595;SDS011;23442;48.182;11.552;2022-09-01T01:56:17;39.05;;;18.42;;
37595;SDS011;23442;48.182;11.552;2022-09-01T01:58:51;33.30;;;17.73;;
37595;SDS011;23442;48.182;11.552;2022-09-01T02:01:19;40.47;;;18.58;;
37595;SDS011;23442;48.182;11.552;2022-09-01T02:03:48;40.25;;;18.85;;
37595;SDS011;23442;48.182;11.552;2022-09-01T02:06:16;35.20;;;17.90;;
37595;SDS011;23442;48.182;11.552;2022-09-01T02:08:46;42.38;;;18.33;;
37595;SDS011;23442;48.182;11.552;2022-09-01T02:11:13;44.05;;;18.80;;
37595;SDS011;23442;48.182;11.552;2022-09-01T02:13:41;36.25;;;17.45;;
37595;SDS011;23442;48.182;11.552;2022-09-01T02:16:10;37.28;;;17.45;;
37595;SDS011;23442;48.182;11.552;2022-09-01T02:18:42;35.33;;;17.98;;
37595;SDS011;23442;48.182;11.552;2022-09-01T02:21:12;42.38;;;19.15;;
37595;SDS011;23442;48.182;11.552;2022-09-01T02:23:44;36.70;;;18.33;;
37595;SDS011;23442;48.182;11.552;2022-09-01T02:26:12;35.72;;;18.17;;
37595;SDS011;23442;48.182;11.552;2022-09-01T02:28:40;42.22;;;19.90;;
37595;SDS011;23442;48.182;11.552;2022-09-01T02:31:08;37.30;;;18.10;;
37595;SDS011;23442;48.182;11.552;2022-09-01T02:33:35;38.60;;;19.20;;
37595;SDS011;23442;48.182;11.552;2022-09-01T02:36:08;69.47;;;24.27;;
37595;SDS011;23442;48.182;11.552;2022-09-01T02:38:38;36.05;;;18.25;;
37595;SDS011;23442;48.182;11.552;2022-09-01T02:41:05;36.63;;;17.67;;
37595;SDS011;23442;48.182;11.552;2022-09-01T02:43:31;35.17;;;17.35;;
37595;SDS011;23442;48.182;11.552;2022-09-01T02:45:59;60.90;;;21.00;;
37595;SDS011;23442;48.182;11.552;2022-09-01T02:48:30;39.63;;;17.48;;
37595;SDS011;23442;48.182;11.552;2022-09-01T02:51:03;30.48;;;15.82;;
37595;SDS011;23442;48.182;11.552;2022-09-01T02:53:31;32.00;;;17.15;;
37595;SDS011;23442;48.182;11.552;2022-09-01T02:55:59;40.63;;;18.38;;
37595;SDS011;23442;48.182;11.552;2022-09-01T02:58:26;34.33;;;17.25;;
37595;SDS011;23442;48.182;11.552;2022-09-01T03:00:54;36.60;;;18.55;;
37595;SDS011;23442;48.182;11.552;2022-09-01T03:03:21;50.85;;;20.02;;
37595;SDS011;23442;48.182;11.552;2022-09-01T03:05:52;51.22;;;19.60;;
37595;SDS011;23442;48.182;11.552;2022-09-01T03:08:21;33.60;;;17.15;;
37595;SDS011;23442;48.182;11.552;2022-09-01T03:10:49;40.63;;;18.85;;
37595;SDS011;23442;48.182;11.552;2022-09-01T03:13:19;60.42;;;21.17;;
37595;SDS011;23442;48.182;11.552;2022-09-01T03:15:47;40.20;;;18.40;;
37595;SDS011;23442;48.182;11.552;2022-09-01T03:18:14;45.65;;;19.10;;
37595;SDS011;23442;48.182;11.552;2022-09-01T03:20:42;40.08;;;18.13;;
37595;SDS011;23442;48.182;11.552;2022-09-01T03:23:11;38.25;;;18.08;;
37595;SDS011;23442;48.182;11.552;2022-09-01T03:25:40;36.55;;;18.55;;
37595;SDS011;23442;48.182;11.552;2022-09-01T03:28:07;42.28;;;19.15;;
37595;SDS011;23442;48.182;11.552;2022-09-01T03:30:37;29.15;;;17.25;;
37595;SDS011;23442;48.182;11.552;2022-09-01T03:33:07;47.80;;;20.17;;
37595;SDS011;23442;48.182;11.552;2022-09-01T03:35:33;40.20;;;18.65;;
37595;SDS011;23442;48.182;11.552;2022-09-01T03:38:00;44.25;;;20.17;;
37595;SDS011;23442;48.182;11.552;2022-09-01T03:40:29;38.78;;;19.85;;
37595;SDS011;23442;48.182;11.552;2022-09-01T03:42:57;38.38;;;19.02;;
37595;SDS011;23442;48.182;11.552;2022-09-01T03:45:24;43.10;;;20.20;;
37595;SDS011;23442;48.182;11.552;2022-09-01T03:47:51;47.25;;;20.42;;
37595;SDS011;23442;48.182;11.552;2022-09-01T03:50:19;35.65;;;17.98;;
37595;SDS011;23442;48.182;11.552;2022-09-01T03:52:47;43.78;;;20.10;;
37595;SDS011;23442;48.182;11.552;2022-09-01T03:55:16;36.65;;;18.52;;
37595;SDS011;23442;48.182;11.552;2022-09-01T03:57:48;36.67;;;18.00;;
37595;SDS011;23442;48.182;11.552;2022-09-01T04:00:14;49.22;;;21.30;;
37595;SDS011;23442;48.182;11.552;2022-09-01T04:02:47;40.83;;;19.27;;
37595;SDS011;23442;48.182;11.552;2022-09-01T04:05:14;39.28;;;19.30;;
37595;SDS011;23442;48.182;11.552;2022-09-01T04:07:48;35.35;;;17.70;;
37595;SDS011;23442;48.182;11.552;2022-09-01T04:10:15;44.88;;;19.88;;
37595;SDS011;23442;48.182;11.552;2022-09-01T04:12:43;33.20;;;17.52;;
37595;SDS011;23442;48.182;11.552;2022-09-01T04:15:09;38.72;;;18.70;;
37595;SDS011;23442;48.182;11.552;2022-09-01T04:17:36;41.10;;;18.67;;
37595;SDS011;23442;48.182;11.552;2022-09-01T04:20:21;31.20;;;17.67;;
37595;SDS011;23442;48.182;11.552;2022-09-01T04:22:47;32.22;;;16.67;;
37595;SDS011;23442;48.182;11.552;2022-09-01T04:25:17;38.50;;;17.93;;
37595;SDS011;23442;48.182;11.552;2022-09-01T04:27:51;45.33;;;18.25;;
37595;SDS011;23442;48.182;11.552;2022-09-01T04:30:22;39.38;;;17.42;;
37595;SDS011;23442;48.182;11.552;2022-09-01T04:32:51;57.78;;;20.27;;
37595;SDS011;23442;48.182;11.552;2022-09-01T04:35:21;41.67;;;18.45;;
37595;SDS011;23442;48.182;11.552;2022-09-01T04:37:56;42.40;;;17.73;;
37595;SDS011;23442;48.182;11.552;2022-09-01T04:40:23;36.08;;;17.10;;
37595;SDS011;23442;48.182;11.552;2022-09-01T04:42:51;33.25;;;16.52;;
37595;SDS011;23442;48.182;11.552;2022-09-01T04:45:17;44.50;;;18.83;;
37595;SDS011;23442;48.182;11.552;2022-09-01T04:47:46;45.88;;;19.85;;
37595;SDS011;23442;48.182;11.552;2022-09-01T04:50:12;53.88;;;19.88;;
37595;SDS011;23442;48.182;11.552;2022-09-01T04:52:42;32.67;;;16.90;;
37595;SDS011;23442;48.182;11.552;2022-09-01T04:55:12;49.78;;;20.42;;
37595;SDS011;23442;48.182;11.552;2022-09-01T04:57:42;35.47;;;18.55;;
37595;SDS011;23442;48.182;11.552;2022-09-01T05:00:14;58.42;;;21.63;;
37595;SDS011;23442;48.182;11.552;2022-09-01T05:02:52;31.38;;;17.23;;
37595;SDS011;23442;48.182;11.552;2022-09-01T05:05:27;43.53;;;19.42;;
37595;SDS011;23442;48.182;11.552;2022-09-01T05:07:53;39.75;;;19.45;;
37595;SDS011;23442;48.182;11.552;2022-09-01T05:10:19;46.28;;;20.08;;
37595;SDS011;23442;48.182;11.552;2022-09-01T05:12:47;49.67;;;21.60;;
37595;SDS011;23442;48.182;11.552;2022-09-01T05:15:14;44.28;;;19.13;;
37595;SDS011;23442;48.182;11.552;2022-09-01T05:17:41;52.80;;;21.30;;
37595;SDS011;23442;48.182;11.552;2022-09-01T05:20:08;50.30;;;22.27;;
37595;SDS011;23442;48.182;11.552;2022-09-01T05:22:36;49.25;;;20.02;;
37595;SDS011;23442;48.182;11.552;2022-09-01T05:25:05;56.43;;;22.27;;
37595;SDS011;23442;48.182;11.552;2022-09-01T05:27:40;39.05;;;19.65;;
37595;SDS011;23442;48.182;11.552;2022-09-01T05:30:14;48.40;;;21.17;;
37595;SDS011;23442;48.182;11.552;2022-09-01T05:32:41;38.22;;;18.52;;
37595;SDS011;23442;48.182;11.552;2022-09-01T05:35:09;36.28;;;19.65;;
37595;SDS011;23442;48.182;11.552;2022-09-01T05:37:35;45.20;;;19.45;;
37595;SDS011;23442;48.182;11.552;2022-09-01T05:40:05;41.35;;;18.73;;
37595;SDS011;23442;48.182;11.552;2022-09-01T05:42:40;32.17;;;17.80;;
37595;SDS011;23442;48.182;11.552;2022-09-01T05:45:07;37.33;;;18.27;;
37595;SDS011;23442;48.182;11.552;2022-09-01T05:47:36;37.57;;;17.30;;
37595;SDS011;23442;48.182;11.552;2022-09-01T05:50:03;46.60;;;20.20;;
37595;SDS011;23442;48.182;11.552;2022-09-01T05:52:32;38.40;;;17.70;;
37595;SDS011;23442;48.182;11.552;2022-09-01T05:55:01;38.60;;;17.25;;
37595;SDS011;23442;48.182;11.552;2022-09-01T05:57:27;56.92;;;20.90;;
37595;SDS011;23442;48.182;11.552;2022-09-01T05:59:53;33.25;;;17.27;;
37595;SDS011;23442;48.182;11.552;2022-09-01T06:02:20;44.95;;;19.05;;
37595;SDS011;23442;48.182;11.552;2022-09-01T06:04:47;36.40;;;17.20;;
37595;SDS011;23442;48.182;11.552;2022-09-01T06:07:14;38.15;;;16.55;;
37595;SDS011;23442;48.182;11.552;2022-09-01T06:09:43;28.42;;;14.43;;
37595;SDS011;23442;48.182;11.552;2022-09-01T06:12:10;29.42;;;15.18;;
37595;SDS011;23442;48.182;11.552;2022-09-01T06:14:44;27.20;;;14.50;;
37595;SDS011;23442;48.182;11.552;2022-09-01T06:17:12;27.85;;;14.15;;
37595;SDS011;23442;48.182;11.552;2022-09-01T06:19:40;31.23;;;13.85;;
37595;SDS011;23442;48.182;11.552;2022-09-01T06:22:07;32.45;;;14.57;;
37595;SDS011;23442;48.182;11.552;2022-09-01T06:24:34;26.15;;;13.65;;
37595;SDS011;23442;48.182;11.552;2022-09-01T06:27:03;20.80;;;11.82;;
37595;SDS011;23442;48.182;11.552;2022-09-01T06:29:34;21.25;;;12.07;;
37595;SDS011;23442;48.182;11.552;2022-09-01T06:32:03;24.65;;;12.30;;
37595;SDS011;23442;48.182;11.552;2022-09-01T06:34:33;25.63;;;11.25;;
37595;SDS011;23442;48.182;11.552;2022-09-01T06:37:00;43.60;;;15.45;;
37595;SDS011;23442;48.182;11.552;2022-09-01T06:39:27;30.13;;;12.50;;
37595;SDS011;23442;48.182;11.552;2022-09-01T06:41:53;28.88;;;13.02;;
37595;SDS011;23442;48.182;11.552;2022-09-01T06:44:22;24.70;;;12.10;;
37595;SDS011;23442;48.182;11.552;2022-09-01T06:46:49;24.48;;;11.77;;
37595;SDS011;23442;48.182;11.552;2022-09-01T06:49:15;27.95;;;11.95;;
37595;SDS011;23442;48.182;11.552;2022-09-01T06:51:42;24.02;;;11.95;;
37595;SDS011;23442;48.182;11.552;2022-09-01T06:54:13;24.13;;;11.50;;
37595;SDS011;23442;48.182;11.552;2022-09-01T06:56:40;24.23;;;11.77;;
37595;SDS011;23442;48.182;11.552;2022-09-01T06:59:06;33.50;;;13.35;;
37595;SDS011;23442;48.182;11.552;2022-09-01T07:01:32;28.20;;;12.93;;
37595;SDS011;23442;48.182;11.552;2022-09-01T07:03:59;24.48;;;12.02;;
37595;SDS011;23442;48.182;11.552;2022-09-01T07:06:26;35.97;;;15.18;;
37595;SDS011;23442;48.182;11.552;2022-09-01T07:08:54;31.45;;;14.45;;
37595;SDS011;23442;48.182;11.552;2022-09-01T07:11:33;29.23;;;13.70;;
37595;SDS011;23442;48.182;11.552;2022-09-01T07:14:01;20.70;;;12.77;;
37595;SDS011;23442;48.182;11.552;2022-09-01T07:16:30;31.60;;;15.10;;
37595;SDS011;23442;48.182;11.552;2022-09-01T07:19:03;26.20;;;13.57;;
37595;SDS011;23442;48.182;11.552;2022-09-01T07:21:35;31.17;;;14.23;;
37595;SDS011;23442;48.182;11.552;2022-09-01T07:24:02;24.27;;;12.93;;
37595;SDS011;23442;48.182;11.552;2022-09-01T07:26:30;30.92;;;14.57;;
37595;SDS011;23442;48.182;11.552;2022-09-01T07:28:57;28.02;;;14.85;;
37595;SDS011;23442;48.182;11.552;2022-09-01T07:31:37;43.25;;;16.58;;
37595;SDS011;23442;48.182;11.552;2022-09-01T07:34:08;28.83;;;15.32;;
37595;SDS011;23442;48.182;11.552;2022-09-01T07:36:37;26.20;;;13.88;;
37595;SDS011;23442;48.182;11.552;2022-09-01T07:39:04;16.33;;;12.27;;
37595;SDS011;23442;48.182;11.552;2022-09-01T07:41:31;27.83;;;15.35;;
37595;SDS011;23442;48.182;11.552;2022-09-01T07:43:59;37.50;;;16.50;;
37595;SDS011;23442;48.182;11.552;2022-09-01T07:46:26;32.88;;;15.50;;
37595;SDS011;23442;48.182;11.552;2022-09-01T07:48:56;32.72;;;15.00;;
37595;SDS011;23442;48.182;11.552;2022-09-01T07:51:23;33.55;;;15.75;;
37595;SDS011;23442;48.182;11.552;2022-09-01T07:53:50;31.88;;;15.00;;
37595;SDS011;23442;48.182;11.552;2022-09-01T07:56:17;29.60;;;14.32;;
37595;SDS011;23442;48.182;11.552;2022-09-01T07:58:46;39.83;;;16.25;;
37595;SDS011;23442;48.182;11.552;2022-09-01T08:01:15;37.40;;;15.18;;
37595;SDS011;23442;48.182;11.552;2022-09-01T08:03:44;21.23;;;11.80;;
37595;SDS011;23442;48.182;11.552;2022-09-01T08:06:12;28.90;;;13.38;;
37595;SDS011;23442;48.182;11.552;2022-09-01T08:08:43;29.85;;;13.07;;
37595;SDS011;23442;48.182;11.552;2022-09-01T08:11:14;21.38;;;11.43;;
37595;SDS011;23442;48.182;11.552;2022-09-01T08:13:42;23.90;;;11.98;;
37595;SDS011;23442;48.182;11.552;2022-09-01T08:16:08;16.20;;;10.20;;
37595;SDS011;23442;48.182;11.552;2022-09-01T08:18:35;16.25;;;10.48;;
37595;SDS011;23442;48.182;11.552;2022-09-01T08:21:05;21.80;;;11.02;;
37595;SDS011;23442;48.182;11.552;2022-09-01T08:23:32;27.30;;;12.05;;
37595;SDS011;23442;48.182;11.552;2022-09-01T08:26:03;42.22;;;14.43;;
37595;SDS011;23442;48.182;11.552;2022-09-01T08:28:34;27.27;;;12.65;;
37595;SDS011;23442;48.182;11.552;2022-09-01T08:31:04;24.02;;;11.25;;
37595;SDS011;23442;48.182;11.552;2022-09-01T08:33:32;21.90;;;10.13;;
37595;SDS011;23442;48.182;11.552;2022-09-01T08:35:59;41.53;;;13.60;;
37595;SDS011;23442;48.182;11.552;2022-09-01T08:38:25;18.98;;;9.50;;
37595;SDS011;23442;48.182;11.552;2022-09-01T08:40:53;23.08;;;10.60;;
37595;SDS011;23442;48.182;11.552;2022-09-01T08:43:33;17.33;;;9.52;;
37595;SDS011;23442;48.182;11.552;2022-09-01T08:46:05;36.55;;;12.77;;
37595;SDS011;23442;48.182;11.552;2022-09-01T08:48:34;22.63;;;10.80;;
37595;SDS011;23442;48.182;11.552;2022-09-01T08:51:13;23.52;;;10.45;;
37595;SDS011;23442;48.182;11.552;2022-09-01T08:53:49;29.33;;;11.50;;
37595;SDS011;23442;48.182;11.552;2022-09-01T08:56:45;26.92;;;10.85;;
37595;SDS011;23442;48.182;11.552;2022-09-01T08:59:12;23.70;;;11.20;;
37595;SDS011;23442;48.182;11.552;2022-09-01T09:01:42;22.83;;;10.73;;
37595;SDS011;23442;48.182;11.552;2022-09-01T09:04:21;25.55;;;11.18;;
37595;SDS011;23442;48.182;11.552;2022-09-01T09:09:21;24.08;;;11.70;;
37595;SDS011;23442;48.182;11.552;2022-09-01T09:14:50;27.95;;;11.93;;
37595;SDS011;23442;48.182;11.552;2022-09-01T09:17:22;24.20;;;11.00;;
37595;SDS011;23442;48.182;11.552;2022-09-01T09:19:58;24.35;;;10.93;;
37595;SDS011;23442;48.182;11.552;2022-09-01T09:22:26;27.08;;;11.30;;
37595;SDS011;23442;48.182;11.552;2022-09-01T09:27:53;24.00;;;11.25;;
37595;SDS011;23442;48.182;11.552;2022-09-01T09:30:24;27.08;;;11.00;;
37595;SDS011;23442;48.182;11.552;2022-09-01T09:32:59;31.75;;;12.43;;
37595;SDS011;23442;48.182;11.552;2022-09-01T09:41:00;24.50;;;13.63;;
37595;SDS011;23442;48.182;11.552;2022-09-01T09:43:31;37.30;;;12.77;;
37595;SDS011;23442;48.182;11.552;2022-09-01T09:46:22;38.25;;;12.88;;
37595;SDS011;23442;48.182;11.552;2022-09-01T09:49:11;30.02;;;11.52;;
37595;SDS011;23442;48.182;11.552;2022-09-01T09:51:45;35.00;;;12.38;;
37595;SDS011;23442;48.182;11.552;2022-09-01T09:56:42;29.15;;;11.23;;
37595;SDS011;23442;48.182;11.552;2022-09-01T09:59:20;23.20;;;9.73;;
37595;SDS011;23442;48.182;11.552;2022-09-01T10:04:49;29.67;;;10.60;;
37595;SDS011;23442;48.182;11.552;2022-09-01T10:09:59;30.70;;;9.82;;
37595;SDS011;23442;48.182;11.552;2022-09-01T10:12:30;19.65;;;8.45;;
37595;SDS011;23442;48.182;11.552;2022-09-01T10:20:05;26.50;;;8.98;;
37595;SDS011;23442;48.182;11.552;2022-09-01T10:22:52;28.67;;;9.30;;
37595;SDS011;23442;48.182;11.552;2022-09-01T10:25:19;20.40;;;7.50;;
37595;SDS011;23442;48.182;11.552;2022-09-01T10:27:48;21.17;;;7.50;;
37595;SDS011;23442;48.182;11.552;2022-09-01T10:30:18;27.00;;;8.88;;
37595;SDS011;23442;48.182;11.552;2022-09-01T10:32:56;37.53;;;10.15;;
37595;SDS011;23442;48.182;11.552;2022-09-01T10:37:51;26.10;;;8.25;;
37595;SDS011;23442;48.182;11.552;2022-09-01T10:42:54;27.10;;;7.68;;
37595;SDS011;23442;48.182;11.552;2022-09-01T10:45:33;20.80;;;6.97;;
37595;SDS011;23442;48.182;11.552;2022-09-01T10:48:43;29.73;;;7.93;;
37595;SDS011;23442;48.182;11.552;2022-09-01T10:53:39;19.40;;;6.90;;
37595;SDS011;23442;48.182;11.552;2022-09-01T11:04:17;17.10;;;5.60;;
37595;SDS011;23442;48.182;11.552;2022-09-01T11:06:53;13.35;;;5.38;;
37595;SDS011;23442;48.182;11.552;2022-09-01T11:15:03;18.02;;;5.88;;
37595;SDS011;23442;48.182;11.552;2022-09-01T11:22:59;16.70;;;6.00;;
37595;SDS011;23442;48.182;11.552;2022-09-01T11:25:33;25.13;;;9.88;;
37595;SDS011;23442;48.182;11.552;2022-09-01T11:36:44;18.02;;;5.22;;
37595;SDS011;23442;48.182;11.552;2022-09-01T11:50:03;18.02;;;5.90;;
37595;SDS011;23442;48.182;11.552;2022-09-01T11:52:36;23.80;;;8.07;;
37595;SDS011;23442;48.182;11.552;2022-09-01T11:55:04;24.80;;;6.60;;
37595;SDS011;23442;48.182;11.552;2022-09-01T12:00:02;31.15;;;7.30;;
37595;SDS011;23442;48.182;11.552;2022-09-01T12:02:32;22.42;;;6.13;;
37595;SDS011;23442;48.182;11.552;2022-09-01T12:05:02;38.55;;;8.85;;
37595;SDS011;23442;48.182;11.552;2022-09-01T12:10:12;23.38;;;6.10;;
37595;SDS011;23442;48.182;11.552;2022-09-01T12:13:01;26.25;;;6.47;;
37595;SDS011;23442;48.182;11.552;2022-09-01T12:15:32;15.45;;;4.70;;
37595;SDS011;23442;48.182;11.552;2022-09-01T12:21:28;20.65;;;6.40;;
37595;SDS011;23442;48.182;11.552;2022-09-01T12:24:09;23.48;;;7.00;;
37595;SDS011;23442;48.182;11.552;2022-09-01T12:26:41;35.25;;;8.55;;
37595;SDS011;23442;48.182;11.552;2022-09-01T12:29:07;25.80;;;7.55;;
37595;SDS011;23442;48.182;11.552;2022-09-01T12:31:35;29.70;;;7.80;;
37595;SDS011;23442;48.182;11.552;2022-09-01T12:34:01;34.55;;;12.18;;
37595;SDS011;23442;48.182;11.552;2022-09-01T12:36:29;41.13;;;37.40;;
37595;SDS011;23442;48.182;11.552;2022-09-01T12:39:21;82.07;;;75.15;;
37595;SDS011;23442;48.182;11.552;2022-09-01T12:42:03;87.07;;;80.93;;
37595;SDS011;23442;48.182;11.552;2022-09-01T12:47:04;103.97;;;97.57;;
37595;SDS011;23442;48.182;11.552;2022-09-01T12:49:36;118.22;;;110.18;;
37595;SDS011;23442;48.182;11.552;2022-09-01T13:02:46;117.57;;;109.65;;
37595;SDS011;23442;48.182;11.552;2022-09-01T13:05:20;125.53;;;114.25;;
37595;SDS011;23442;48.182;11.552;2022-09-01T13:07:51;112.65;;;105.15;;
37595;SDS011;23442;48.182;11.552;2022-09-01T13:10:18;106.95;;;100.68;;
37595;SDS011;23442;48.182;11.552;2022-09-01T13:12:45;111.00;;;101.75;;
37595;SDS011;23442;48.182;11.552;2022-09-01T13:15:12;199.23;;;184.68;;
37595;SDS011;23442;48.182;11.552;2022-09-01T13:17:38;104.68;;;97.00;;
37595;SDS011;23442;48.182;11.552;2022-09-01T13:20:05;160.50;;;149.95;;
37595;SDS011;23442;48.182;11.552;2022-09-01T13:22:32;83.57;;;75.97;;
37595;SDS011;23442;48.182;11.552;2022-09-01T13:24:59;109.45;;;101.07;;
37595;SDS011;23442;48.182;11.552;2022-09-01T13:27:25;107.05;;;99.72;;
37595;SDS011;23442;48.182;11.552;2022-09-01T13:29:51;161.02;;;149.15;;
37595;SDS011;23442;48.182;11.552;2022-09-01T13:32:18;161.50;;;151.07;;
37595;SDS011;23442;48.182;11.552;2022-09-01T13:34:45;46.85;;;26.92;;
37595;SDS011;23442;48.182;11.552;2022-09-01T13:37:13;29.92;;;7.53;;
37595;SDS011;23442;48.182;11.552;2022-09-01T13:39:39;38.15;;;9.15;;
37595;SDS011;23442;48.182;11.552;2022-09-01T13:42:05;44.42;;;13.13;;
37595;SDS011;23442;48.182;11.552;2022-09-01T13:44:32;20.95;;;8.82;;
37595;SDS011;23442;48.182;11.552;2022-09-01T13:46:58;36.45;;;10.00;;
37595;SDS011;23442;48.182;11.552;2022-09-01T13:49:24;35.45;;;21.75;;
37595;SDS011;23442;48.182;11.552;2022-09-01T13:51:51;83.57;;;77.93;;
37595;SDS011;23442;48.182;11.552;2022-09-01T13:54:17;70.60;;;65.13;;
37595;SDS011;23442;48.182;11.552;2022-09-01T13:56:45;90.28;;;84.32;;
37595;SDS011;23442;48.182;11.552;2022-09-01T13:59:11;125.00;;;117.28;;
37595;SDS011;23442;48.182;11.552;2022-09-01T14:01:37;136.23;;;127.43;;
37595;SDS011;23442;48.182;11.552;2022-09-01T14:04:06;122.90;;;115.22;;
37595;SDS011;23442;48.182;11.552;2022-09-01T14:06:37;125.68;;;118.15;;
37595;SDS011;23442;48.182;11.552;2022-09-01T14:09:04;137.90;;;129.63;;
37595;SDS011;23442;48.182;11.552;2022-09-01T14:11:31;144.90;;;135.70;;
37595;SDS011;23442;48.182;11.552;2022-09-01T14:13:57;153.68;;;143.45;;
37595;SDS011;23442;48.182;11.552;2022-09-01T14:16:23;147.20;;;135.05;;
37595;SDS011;23442;48.182;11.552;2022-09-01T14:18:49;135.30;;;126.38;;
37595;SDS011;23442;48.182;11.552;2022-09-01T14:21:15;189.88;;;178.63;;
37595;SDS011;23442;48.182;11.552;2022-09-01T14:23:42;188.43;;;176.77;;
37595;SDS011;23442;48.182;11.552;2022-09-01T14:26:11;149.45;;;140.27;;
37595;SDS011;23442;48.182;11.552;2022-09-01T14:28:38;106.78;;;99.90;;
37595;SDS011;23442;48.182;11.552;2022-09-01T14:31:10;122.22;;;112.00;;
37595;SDS011;23442;48.182;11.552;2022-09-01T14:33:37;123.43;;;115.72;;
37595;SDS011;23442;48.182;11.552;2022-09-01T14:36:04;114.20;;;101.82;;
37595;SDS011;23442;48.182;11.552;2022-09-01T14:38:31;36.13;;;8.63;;
37595;SDS011;23442;48.182;11.552;2022-09-01T14:40:59;52.53;;;32.88;;
37595;SDS011;23442;48.182;11.552;2022-09-01T14:43:26;91.05;;;83.60;;
37595;SDS011;23442;48.182;11.552;2022-09-01T14:46:05;120.95;;;109.82;;
37595;SDS011;23442;48.182;11.552;2022-09-01T14:48:35;133.13;;;124.32;;
37595;SDS011;23442;48.182;11.552;2022-09-01T14:51:04;160.57;;;149.80;;
37595;SDS011;23442;48.182;11.552;2022-09-01T14:53:32;134.30;;;126.05;;
37595;SDS011;23442;48.182;11.552;2022-09-01T14:55:59;126.28;;;113.38;;
37595;SDS011;23442;48.182;11.552;2022-09-01T14:58:25;143.90;;;132.15;;
37595;SDS011;23442;48.182;11.552;2022-09-01T15:00:53;122.13;;;112.38;;
37595;SDS011;23442;48.182;11.552;2022-09-01T15:03:21;162.95;;;147.55;;
37595;SDS011;23442;48.182;11.552;2022-09-01T15:05:47;170.95;;;158.18;;
37595;SDS011;23442;48.182;11.552;2022-09-01T15:08:14;163.27;;;152.38;;
37595;SDS011;23442;48.182;11.552;2022-09-01T15:10:41;159.95;;;150.77;;
37595;SDS011;23442;48.182;11.552;2022-09-01T15:13:07;204.73;;;193.20;;
37595;SDS011;23442;48.182;11.552;2022-09-01T15:15:34;328.05;;;311.60;;
37595;SDS011;23442;48.182;11.552;2022-09-01T15:18:00;316.10;;;298.33;;
37595;SDS011;23442;48.182;11.552;2022-09-01T15:20:27;335.90;;;315.27;;
37595;SDS011;23442;48.182;11.552;2022-09-01T15:23:09;307.02;;;289.90;;
37595;SDS011;23442;48.182;11.552;2022-09-01T15:25:36;270.73;;;255.85;;
37595;SDS011;23442;48.182;11.552;2022-09-01T15:28:03;231.38;;;218.65;;
37595;SDS011;23442;48.182;11.552;2022-09-01T15:30:30;252.25;;;237.40;;
37595;SDS011;23442;48.182;11.552;2022-09-01T15:32:56;230.25;;;212.63;;
37595;SDS011;23442;48.182;11.552;2022-09-01T15:35:22;213.70;;;200.18;;
37595;SDS011;23442;48.182;11.552;2022-09-01T15:37:49;198.75;;;184.95;;
37595;SDS011;23442;48.182;11.552;2022-09-01T15:40:16;178.35;;;165.95;;
37595;SDS011;23442;48.182;11.552;2022-09-01T15:42:43;187.48;;;175.88;;
37595;SDS011;23442;48.182;11.552;2022-09-01T15:45:11;173.10;;;159.48;;
37595;SDS011;23442;48.182;11.552;2022-09-01T15:47:42;154.82;;;143.68;;
37595;SDS011;23442;48.182;11.552;2022-09-01T15:50:09;110.97;;;100.85;;
37595;SDS011;23442;48.182;11.552;2022-09-01T15:55:21;55.55;;;31.80;;
37595;SDS011;23442;48.182;11.552;2022-09-01T15:57:52;61.58;;;56.70;;
37595;SDS011;23442;48.182;11.552;2022-09-01T16:00:19;57.08;;;34.35;;